createdAt,value
2018-02-08T00:01:24.838Z,66.20
2018-02-08T00:03:52.427Z,65.55
2018-02-08T00:06:20.768Z,60.10
2018-02-08T00:08:48.310Z,60.65
2018-02-08T00:11:15.907Z,64.93
2018-02-08T00:13:43.524Z,64.72
2018-02-08T00:16:11.066Z,65.57
2018-02-08T00:18:38.651Z,58.22
2018-02-08T00:21:06.246Z,64.37
2018-02-08T00:23:33.774Z,65.10
2018-02-08T00:26:01.348Z,66.70
2018-02-08T00:28:28.924Z,68.60
2018-02-08T00:30:56.545Z,69.47
2018-02-08T00:33:24.071Z,61.35
2018-02-08T00:35:52.371Z,65.72
2018-02-08T00:38:19.947Z,65.20
2018-02-08T00:40:47.504Z,64.95
2018-02-08T00:43:15.075Z,64.68
2018-02-08T00:45:42.657Z,62.38
2018-02-08T00:48:10.201Z,64.12
2018-02-08T00:50:37.733Z,62.72
2018-02-08T00:53:05.304Z,65.82
2018-02-08T00:55:32.880Z,60.85
2018-02-08T00:58:00.419Z,63.08
2018-02-08T01:00:27.947Z,72.35
2018-02-08T01:02:56.356Z,63.63
2018-02-08T01:05:23.896Z,62.05
2018-02-08T01:07:51.466Z,64.07
2018-02-08T01:10:19.005Z,66.60
2018-02-08T01:12:47.348Z,61.40
2018-02-08T01:15:15.013Z,69.80
2018-02-08T01:17:42.859Z,62.42
2018-02-08T01:20:10.439Z,65.68
2018-02-08T01:22:38.783Z,75.62
2018-02-08T01:25:06.314Z,62.92
2018-02-08T01:27:33.884Z,67.50
2018-02-08T01:30:01.423Z,58.92
2018-02-08T01:32:29.768Z,69.18
2018-02-08T01:34:57.309Z,73.90
2018-02-08T01:37:24.839Z,64.80
2018-02-08T01:39:52.412Z,70.65
2018-02-08T01:42:19.955Z,65.10
2018-02-08T01:44:47.528Z,65.95
2018-02-08T01:47:15.108Z,67.05
2018-02-08T01:49:46.183Z,74.30
2018-02-08T01:52:13.743Z,62.70
2018-02-08T01:54:41.328Z,69.90
2018-02-08T01:57:08.913Z,66.50
2018-02-08T01:59:36.455Z,67.18
2018-02-08T02:02:04.082Z,73.25
2018-02-08T02:04:31.622Z,76.07
2018-02-08T02:06:59.184Z,69.93
2018-02-08T02:09:26.812Z,73.03
2018-02-08T02:11:54.390Z,77.75
2018-02-08T02:14:21.925Z,76.37
2018-02-08T02:16:49.509Z,67.97
2018-02-08T02:19:17.057Z,77.10
2018-02-08T02:21:44.595Z,65.75
2018-02-08T02:24:12.196Z,71.80
2018-02-08T02:26:39.728Z,71.80
2018-02-08T02:29:07.315Z,71.50
2018-02-08T02:31:34.858Z,73.12
2018-02-08T02:34:02.442Z,72.70
2018-02-08T02:36:29.978Z,64.00
2018-02-08T02:38:57.511Z,73.15
2018-02-08T02:41:25.214Z,71.70
2018-02-08T02:43:52.754Z,71.28
2018-02-08T02:46:20.333Z,75.55
2018-02-08T02:48:47.868Z,76.15
2018-02-08T02:51:15.530Z,74.60
2018-02-08T02:53:43.113Z,75.95
2018-02-08T02:56:10.652Z,80.05
2018-02-08T02:58:38.192Z,69.68
2018-02-08T03:01:05.767Z,69.35
2018-02-08T03:03:33.311Z,70.32
2018-02-08T03:06:00.888Z,69.18
2018-02-08T03:08:28.427Z,71.32
2018-02-08T03:10:56.020Z,83.68
2018-02-08T03:13:23.556Z,78.37
2018-02-08T03:15:51.105Z,74.22
2018-02-08T03:18:18.673Z,85.47
2018-02-08T03:20:46.243Z,77.03
2018-02-08T03:23:13.811Z,81.53
2018-02-08T03:25:41.352Z,74.60
2018-02-08T03:28:09.026Z,82.18
2018-02-08T03:30:39.199Z,80.82
2018-02-08T03:33:06.785Z,75.95
2018-02-08T03:35:34.336Z,76.68
2018-02-08T03:38:02.637Z,75.95
2018-02-08T03:40:30.212Z,77.18
2018-02-08T03:42:57.752Z,77.72
2018-02-08T03:45:25.342Z,72.62
2018-02-08T03:47:52.911Z,76.60
2018-02-08T03:50:20.496Z,73.20
2018-02-08T03:52:48.028Z,78.90
2018-02-08T03:55:15.567Z,71.50
2018-02-08T03:57:43.145Z,80.43
2018-02-08T04:00:10.688Z,78.65
2018-02-08T04:02:38.284Z,80.40
2018-02-08T04:05:05.825Z,82.05
2018-02-08T04:07:33.407Z,70.95
2018-02-08T04:10:00.940Z,85.70
2018-02-08T04:12:28.478Z,77.70
2018-02-08T04:14:56.057Z,80.12
2018-02-08T04:17:23.595Z,83.60
2018-02-08T04:19:51.175Z,80.07
2018-02-08T04:22:18.710Z,83.70
2018-02-08T04:24:46.247Z,73.25
2018-02-08T04:27:13.820Z,82.75
2018-02-08T04:29:41.395Z,85.18
2018-02-08T04:34:47.617Z,77.07
2018-02-08T04:37:15.187Z,83.10
2018-02-08T04:39:54.611Z,76.30
2018-02-08T04:42:29.823Z,72.32
2018-02-08T04:45:09.328Z,78.47
2018-02-08T04:48:13.443Z,80.25
2018-02-08T04:50:40.979Z,74.95
2018-02-08T04:53:08.515Z,73.55
2018-02-08T04:55:36.086Z,77.43
2018-02-08T04:58:03.620Z,76.07
2018-02-08T05:00:31.207Z,84.20
2018-02-08T05:02:59.514Z,75.55
2018-02-08T05:05:27.834Z,84.07
2018-02-08T05:07:55.412Z,83.57
2018-02-08T05:10:22.948Z,77.40
2018-02-08T05:12:50.495Z,80.78
2018-02-08T05:15:18.071Z,77.80
2018-02-08T05:17:45.612Z,78.68
2018-02-08T05:20:13.208Z,78.03
2018-02-08T05:22:40.792Z,73.43
2018-02-08T05:25:09.143Z,78.03
2018-02-08T05:27:36.715Z,83.57
2018-02-08T05:30:04.249Z,80.68
2018-02-08T05:32:31.808Z,79.53
2018-02-08T05:34:59.383Z,76.80
2018-02-08T05:37:26.980Z,87.07
2018-02-08T05:39:55.297Z,72.82
2018-02-08T05:42:22.830Z,78.10
2018-02-08T05:44:50.408Z,78.05
2018-02-08T05:47:17.980Z,79.10
2018-02-08T05:49:45.560Z,78.18
2018-02-08T05:52:13.099Z,73.78
2018-02-08T05:54:40.679Z,85.78
2018-02-08T05:57:08.218Z,78.12
2018-02-08T05:59:35.804Z,71.62
2018-02-08T06:02:03.345Z,76.35
2018-02-08T06:04:30.895Z,76.82
2018-02-08T06:06:58.472Z,76.15
2018-02-08T06:09:26.017Z,78.72
2018-02-08T06:11:53.606Z,75.55
2018-02-08T06:14:21.147Z,80.18
2018-02-08T06:16:48.677Z,90.10
2018-02-08T06:19:16.247Z,80.20
2018-02-08T06:21:43.821Z,80.57
2018-02-08T06:24:11.393Z,93.28
2018-02-08T06:26:38.976Z,74.28
2018-02-08T06:29:06.519Z,82.35
2018-02-08T06:31:34.105Z,86.03
2018-02-08T06:34:02.732Z,81.10
2018-02-08T06:36:30.281Z,74.80
2018-02-08T06:38:57.818Z,76.32
2018-02-08T06:41:26.174Z,87.07
2018-02-08T06:43:53.703Z,83.53
2018-02-08T06:46:21.292Z,80.90
2018-02-08T06:48:48.872Z,83.35
2018-02-08T06:51:17.181Z,79.93
2018-02-08T06:53:44.760Z,81.95
2018-02-08T06:56:12.305Z,80.03
2018-02-08T06:58:39.921Z,80.90
2018-02-08T07:01:07.442Z,84.05
2018-02-08T07:03:35.028Z,82.03
2018-02-08T07:06:03.327Z,79.57
2018-02-08T07:08:31.743Z,84.70
2018-02-08T07:11:07.184Z,87.05
2018-02-08T07:13:34.848Z,89.53
2018-02-08T07:16:02.387Z,83.60
2018-02-08T07:18:29.928Z,73.87
2018-02-08T07:20:58.264Z,81.43
2018-02-08T07:23:25.850Z,81.75
2018-02-08T07:25:53.396Z,78.18
2018-02-08T07:28:20.977Z,78.53
2018-02-08T07:30:49.328Z,78.97
2018-02-08T07:33:16.873Z,81.72
2018-02-08T07:35:44.431Z,85.18
2018-02-08T07:38:11.971Z,78.50
2018-02-08T07:40:39.551Z,76.57
2018-02-08T07:43:07.090Z,80.95
2018-02-08T07:45:34.681Z,77.15
2018-02-08T07:48:02.270Z,79.40
2018-02-08T07:50:30.611Z,75.20
2018-02-08T07:52:58.168Z,80.90
2018-02-08T07:55:25.783Z,82.22
2018-02-08T07:57:53.384Z,88.68
2018-02-08T08:00:20.982Z,83.37
2018-02-08T08:02:48.541Z,79.60
2018-02-08T08:05:16.120Z,83.22
2018-02-08T08:07:44.428Z,90.40
2018-02-08T08:10:12.004Z,82.60
2018-02-08T08:12:39.547Z,89.80
2018-02-08T08:15:07.125Z,83.47
2018-02-08T08:17:34.667Z,78.50
2018-02-08T08:20:02.238Z,83.87
2018-02-08T08:22:29.778Z,77.50
2018-02-08T08:24:57.366Z,81.87
2018-02-08T08:27:24.922Z,78.65
2018-02-08T08:29:52.523Z,85.95
2018-02-08T08:32:20.825Z,80.30
2018-02-08T08:34:48.404Z,79.05
2018-02-08T08:37:15.953Z,91.15
2018-02-08T08:39:43.544Z,83.50
2018-02-08T08:42:11.126Z,76.45
2018-02-08T08:44:38.707Z,82.72
2018-02-08T08:47:07.014Z,80.80
2018-02-08T08:49:34.593Z,83.15
2018-02-08T08:52:02.135Z,94.15
2018-02-08T08:54:29.760Z,92.47
2018-02-08T08:56:58.073Z,85.45
2018-02-08T08:59:25.646Z,76.18
2018-02-08T09:01:53.278Z,72.37
2018-02-08T09:04:20.856Z,79.62
2018-02-08T09:06:48.395Z,82.03
2018-02-08T09:09:15.970Z,80.90
2018-02-08T09:11:43.512Z,84.00
2018-02-08T09:14:11.846Z,82.75
2018-02-08T09:16:39.381Z,81.15
2018-02-08T09:19:07.154Z,85.95
2018-02-08T09:21:34.688Z,78.05
2018-02-08T09:24:02.214Z,87.68
2018-02-08T09:26:30.564Z,82.55
2018-02-08T09:28:58.172Z,82.12
2018-02-08T09:31:25.707Z,79.85
2018-02-08T09:33:53.299Z,84.80
2018-02-08T09:36:20.875Z,83.55
2018-02-08T09:38:48.662Z,74.28
2018-02-08T09:41:16.243Z,78.72
2018-02-08T09:43:43.792Z,80.97
2018-02-08T09:46:11.377Z,88.22
2018-02-08T09:48:39.682Z,83.03
2018-02-08T09:51:07.263Z,86.35
2018-02-08T09:53:34.803Z,89.65
2018-02-08T09:56:02.934Z,79.65
2018-02-08T09:58:30.467Z,78.45
2018-02-08T10:00:58.048Z,91.65
2018-02-08T10:03:25.588Z,84.53
2018-02-08T10:05:53.174Z,87.32
2018-02-08T10:08:20.716Z,74.65
2018-02-08T10:10:48.289Z,84.35
2018-02-08T10:13:15.892Z,76.43
2018-02-08T10:15:43.501Z,85.05
2018-02-08T10:18:11.029Z,82.10
2018-02-08T10:20:38.774Z,83.40
2018-02-08T10:23:06.316Z,82.82
2018-02-08T10:25:34.664Z,89.50
2018-02-08T10:28:02.200Z,87.43
2018-02-08T10:30:29.848Z,84.35
2018-02-08T10:32:57.390Z,82.32
2018-02-08T10:35:24.968Z,94.47
2018-02-08T10:37:52.505Z,86.70
2018-02-08T10:40:20.084Z,92.03
2018-02-08T10:42:47.623Z,91.25
2018-02-08T10:45:15.208Z,89.32
2018-02-08T10:47:42.788Z,82.85
2018-02-08T10:50:10.327Z,88.97
2018-02-08T10:52:37.903Z,101.07
2018-02-08T10:55:05.560Z,98.55
2018-02-08T10:57:33.104Z,87.47
2018-02-08T11:00:00.688Z,92.25
2018-02-08T11:02:28.262Z,86.68
2018-02-08T11:04:55.822Z,87.82
2018-02-08T11:07:23.446Z,76.72
2018-02-08T11:09:51.020Z,92.25
2018-02-08T11:12:18.559Z,100.75
2018-02-08T11:14:46.128Z,96.28
2018-02-08T11:17:13.662Z,91.63
2018-02-08T11:19:41.247Z,89.22
2018-02-08T11:22:08.784Z,97.07
2018-02-08T11:24:37.008Z,92.85
2018-02-08T11:27:04.561Z,92.03
2018-02-08T11:29:32.142Z,89.30
2018-02-08T11:31:59.689Z,92.10
2018-02-08T11:34:27.267Z,87.18
2018-02-08T11:36:54.804Z,86.30
2018-02-08T11:39:22.380Z,100.65
2018-02-08T11:41:49.913Z,95.80
2018-02-08T11:44:17.491Z,92.00
2018-02-08T11:46:45.028Z,92.18
2018-02-08T11:49:12.608Z,97.93
2018-02-08T11:51:40.153Z,96.10
2018-02-08T11:54:07.730Z,93.12
2018-02-08T11:56:35.271Z,91.18
2018-02-08T11:59:02.848Z,92.05
2018-02-08T12:01:30.378Z,94.05
2018-02-08T12:03:57.970Z,89.72
2018-02-08T12:06:25.525Z,94.15
2018-02-08T12:08:53.101Z,87.50
2018-02-08T12:11:21.402Z,92.57
2018-02-08T12:13:49.736Z,98.75
2018-02-08T12:16:17.269Z,84.20
2018-02-08T12:18:44.856Z,91.53
2018-02-08T12:21:12.387Z,91.40
2018-02-08T12:23:40.470Z,92.93
2018-02-08T12:26:08.117Z,96.97
2018-02-08T12:28:35.700Z,96.60
2018-02-08T12:31:03.236Z,90.10
2018-02-08T12:33:30.834Z,91.90
2018-02-08T12:35:58.375Z,90.07
2018-02-08T12:38:26.007Z,89.57
2018-02-08T12:40:54.289Z,92.90
2018-02-08T12:43:21.876Z,90.07
2018-02-08T12:45:49.420Z,87.68
2018-02-08T12:48:17.011Z,92.25
2018-02-08T12:50:44.555Z,91.87
2018-02-08T12:53:12.142Z,100.62
2018-02-08T12:55:39.687Z,99.13
2018-02-08T12:58:08.782Z,101.57
2018-02-08T13:00:36.330Z,91.03
2018-02-08T13:03:03.936Z,94.07
2018-02-08T13:05:32.257Z,93.47
2018-02-08T13:07:59.838Z,92.37
2018-02-08T13:10:27.383Z,89.95
2018-02-08T13:12:54.967Z,95.30
2018-02-08T13:15:24.031Z,92.80
2018-02-08T13:17:51.612Z,82.35
2018-02-08T13:20:19.243Z,87.18
2018-02-08T13:22:46.838Z,81.68
2018-02-08T13:25:14.379Z,86.57
2018-02-08T13:27:42.023Z,86.12
2018-02-08T13:30:09.584Z,94.28
2018-02-08T13:32:37.149Z,90.30
2018-02-08T13:35:04.733Z,91.78
2018-02-08T13:37:32.311Z,92.43
2018-02-08T13:40:00.692Z,85.35
2018-02-08T13:42:29.049Z,92.60
2018-02-08T13:44:56.609Z,89.30
2018-02-08T13:47:39.883Z,83.82
2018-02-08T13:50:23.252Z,84.55
2018-02-08T13:52:52.671Z,96.03
2018-02-08T13:55:37.984Z,90.90
2018-02-08T13:58:23.186Z,85.20
2018-02-08T14:01:10.441Z,83.22
2018-02-08T14:03:38.020Z,74.37
2018-02-08T14:06:05.619Z,86.15
2018-02-08T14:08:33.952Z,86.35
2018-02-08T14:11:01.484Z,88.97
2018-02-08T14:13:29.085Z,80.03
2018-02-08T14:15:57.430Z,91.25
2018-02-08T14:18:24.982Z,92.22
2018-02-08T14:20:52.586Z,89.85
2018-02-08T14:23:20.890Z,85.30
2018-02-08T14:25:48.451Z,79.93
2018-02-08T14:28:16.049Z,83.70
2018-02-08T14:30:43.600Z,88.20
2018-02-08T14:33:11.195Z,81.55
2018-02-08T14:35:38.731Z,83.93
2018-02-08T14:38:06.317Z,87.43
2018-02-08T14:40:34.622Z,81.25
2018-02-08T14:43:02.276Z,87.07
2018-02-08T14:45:29.818Z,79.60
2018-02-08T14:47:58.165Z,79.85
2018-02-08T14:50:25.725Z,83.05
2018-02-08T14:52:53.311Z,78.43
2018-02-08T14:55:20.850Z,82.30
2018-02-08T14:57:48.436Z,76.87
2018-02-08T15:00:16.760Z,75.18
2018-02-08T15:02:44.356Z,72.22
2018-02-08T15:05:11.892Z,85.30
2018-02-08T15:07:39.509Z,74.93
2018-02-08T15:10:07.093Z,77.85
2018-02-08T15:12:34.675Z,72.05
2018-02-08T15:15:02.320Z,74.82
2018-02-08T15:17:29.899Z,72.50
2018-02-08T15:19:57.444Z,70.53
2018-02-08T15:22:25.054Z,75.45
2018-02-08T15:24:52.596Z,74.62
2018-02-08T15:27:20.172Z,70.65
2018-02-08T15:29:47.720Z,76.32
2018-02-08T15:32:15.312Z,72.00
2018-02-08T15:34:43.632Z,65.45
2018-02-08T15:37:11.228Z,72.97
2018-02-08T15:39:38.784Z,66.57
2018-02-08T15:42:07.885Z,79.40
2018-02-08T15:44:35.442Z,69.40
2018-02-08T15:47:03.025Z,69.62
2018-02-08T15:49:31.331Z,68.68
2018-02-08T15:51:58.970Z,66.43
2018-02-08T15:54:27.275Z,80.03
2018-02-08T15:56:54.874Z,79.87
2018-02-08T15:59:22.423Z,69.12
2018-02-08T16:01:50.165Z,75.75
2018-02-08T16:04:17.710Z,64.15
2018-02-08T16:06:45.314Z,68.53
2018-02-08T16:09:12.860Z,69.32
2018-02-08T16:11:40.399Z,63.60
2018-02-08T16:14:07.981Z,62.58
2018-02-08T16:16:35.530Z,68.62
2018-02-08T16:19:03.109Z,68.50
2018-02-08T16:21:30.733Z,65.90
2018-02-08T16:23:58.309Z,73.53
2018-02-08T16:26:25.834Z,76.05
2018-02-08T16:28:53.426Z,82.85
2018-02-08T16:31:20.978Z,89.03
2018-02-08T16:33:48.553Z,81.87
2018-02-08T16:36:16.100Z,86.22
2018-02-08T16:38:43.673Z,84.72
2018-02-08T16:41:11.217Z,98.93
2018-02-08T16:43:38.818Z,85.40
2018-02-08T16:46:06.370Z,94.25
2018-02-08T16:48:33.943Z,105.87
2018-02-08T16:51:02.267Z,89.32
2018-02-08T16:53:29.862Z,92.70
2018-02-08T16:55:57.405Z,99.90
2018-02-08T16:58:24.987Z,90.87
2018-02-08T17:00:52.524Z,88.95
2018-02-08T17:03:20.195Z,92.18
2018-02-08T17:05:47.737Z,92.78
2018-02-08T17:08:15.390Z,94.62
2018-02-08T17:10:42.940Z,89.87
2018-02-08T17:13:10.504Z,101.80
2018-02-08T17:15:38.088Z,92.00
2018-02-08T17:18:05.641Z,88.03
2018-02-08T17:20:33.227Z,102.53
2018-02-08T17:23:00.768Z,97.20
2018-02-08T17:25:28.445Z,96.57
2018-02-08T17:27:56.002Z,89.85
2018-02-08T17:30:23.587Z,91.82
2018-02-08T17:32:51.895Z,90.80
2018-02-08T17:35:19.484Z,86.68
2018-02-08T17:37:47.027Z,87.85
2018-02-08T17:40:14.615Z,85.25
2018-02-08T17:42:42.161Z,87.80
2018-02-08T17:45:09.760Z,81.97
2018-02-08T17:47:38.082Z,80.22
2018-02-08T17:50:05.666Z,82.37
2018-02-08T17:52:33.204Z,92.22
2018-02-08T17:55:00.790Z,90.53
2018-02-08T17:57:28.336Z,85.38
2018-02-08T17:59:55.915Z,85.00
2018-02-08T18:02:23.461Z,94.18
2018-02-08T18:04:51.037Z,120.80
2018-02-08T18:07:19.344Z,94.85
2018-02-08T18:09:47.688Z,95.70
2018-02-08T18:12:15.232Z,104.35
2018-02-08T18:14:42.833Z,97.60
2018-02-08T18:17:10.373Z,89.13
2018-02-08T18:19:37.951Z,78.30
2018-02-08T18:22:06.268Z,83.07
2018-02-08T18:24:33.863Z,77.50
2018-02-08T18:27:01.409Z,78.12
2018-02-08T18:29:28.987Z,80.93
2018-02-08T18:31:56.540Z,76.07
2018-02-08T18:34:24.118Z,87.05
2018-02-08T18:36:51.660Z,81.37
2018-02-08T18:39:19.245Z,77.68
2018-02-08T18:41:47.703Z,79.22
2018-02-08T18:44:15.279Z,83.10
2018-02-08T18:46:42.824Z,80.35
2018-02-08T18:49:10.406Z,75.50
2018-02-08T18:51:37.937Z,79.80
2018-02-08T18:54:05.513Z,80.45
2018-02-08T18:56:33.102Z,83.05
2018-02-08T18:59:01.437Z,75.03
2018-02-08T19:01:28.993Z,67.53
2018-02-08T19:03:56.611Z,72.10
2018-02-08T19:06:24.897Z,76.32
2018-02-08T19:08:52.504Z,81.75
2018-02-08T19:11:20.031Z,72.80
2018-02-08T19:13:47.608Z,78.20
2018-02-08T19:16:15.147Z,71.18
2018-02-08T19:18:42.808Z,72.72
2018-02-08T19:21:10.355Z,90.95
2018-02-08T19:23:37.946Z,86.60
2018-02-08T19:26:05.537Z,78.37
2018-02-08T19:28:33.866Z,81.07
2018-02-08T19:31:01.549Z,78.75
2018-02-08T19:33:29.091Z,84.13
2018-02-08T19:35:56.666Z,78.65
2018-02-08T19:38:24.243Z,75.57
2018-02-08T19:40:51.773Z,76.82
2018-02-08T19:43:19.362Z,78.32
2018-02-08T19:45:46.905Z,79.90
2018-02-08T19:48:14.447Z,82.93
2018-02-08T19:50:42.055Z,89.90
2018-02-08T19:53:09.665Z,75.90
2018-02-08T19:55:37.258Z,79.65
2018-02-08T19:58:04.802Z,80.90
2018-02-08T20:00:32.362Z,76.95
2018-02-08T20:02:59.948Z,79.75
2018-02-08T20:05:27.533Z,74.50
2018-02-08T20:07:55.862Z,82.50
2018-02-08T20:10:23.445Z,69.82
2018-02-08T20:12:50.995Z,72.25
2018-02-08T20:15:19.486Z,74.95
2018-02-08T20:17:47.072Z,71.25
2018-02-08T20:20:15.407Z,73.18
2018-02-08T20:22:42.942Z,73.30
2018-02-08T20:25:16.275Z,74.93
2018-02-08T20:27:43.868Z,78.10
2018-02-08T20:30:12.174Z,66.72
2018-02-08T20:32:39.756Z,81.32
2018-02-08T20:35:07.301Z,75.20
2018-02-08T20:37:34.839Z,79.62
2018-02-08T20:40:02.497Z,83.53
2018-02-08T20:42:35.897Z,84.03
2018-02-08T20:45:03.479Z,86.55
2018-02-08T20:47:31.026Z,81.45
2018-02-08T20:50:03.616Z,82.32
2018-02-08T20:52:31.167Z,81.07
2018-02-08T20:54:58.742Z,99.10
2018-02-08T20:57:26.320Z,96.68
2018-02-08T20:59:53.857Z,93.75
2018-02-08T21:02:21.431Z,86.00
2018-02-08T21:04:48.970Z,88.20
2018-02-08T21:07:16.535Z,91.05
2018-02-08T21:09:44.070Z,88.80
2018-02-08T21:12:11.648Z,92.97
2018-02-08T21:14:39.191Z,86.93
2018-02-08T21:17:06.756Z,78.00
2018-02-08T21:19:34.283Z,79.03
2018-02-08T21:22:02.635Z,77.78
2018-02-08T21:24:30.174Z,92.15
2018-02-08T21:26:57.704Z,85.53
2018-02-08T21:29:25.287Z,88.00
2018-02-08T21:31:52.871Z,89.10
2018-02-08T21:34:20.440Z,88.45
2018-02-08T21:36:48.032Z,77.22
2018-02-08T21:39:16.345Z,89.20
2018-02-08T21:41:43.920Z,82.05
2018-02-08T21:44:11.460Z,89.55
2018-02-08T21:46:39.078Z,87.00
2018-02-08T21:49:06.601Z,91.12
2018-02-08T21:51:34.184Z,94.37
2018-02-08T21:54:01.715Z,99.53
2018-02-08T21:56:29.289Z,89.07
2018-02-08T21:58:56.835Z,92.05
2018-02-08T22:01:24.427Z,84.97
2018-02-08T22:03:52.802Z,87.35
2018-02-08T22:06:20.385Z,87.72
2018-02-08T22:08:48.729Z,87.75
2018-02-08T22:11:16.321Z,82.20
2018-02-08T22:13:44.632Z,102.70
2018-02-08T22:16:12.211Z,97.97
2018-02-08T22:18:39.750Z,90.82
2018-02-08T22:21:07.329Z,86.68
2018-02-08T22:23:34.866Z,84.25
2018-02-08T22:26:02.444Z,91.25
2018-02-08T22:28:30.022Z,82.18
2018-02-08T22:30:57.612Z,99.87
2018-02-08T22:33:25.924Z,106.47
2018-02-08T22:35:53.503Z,107.35
2018-02-08T22:38:21.044Z,95.03
2018-02-08T22:40:48.601Z,93.87
2018-02-08T22:43:16.274Z,87.35
2018-02-08T22:45:43.826Z,98.50
2018-02-08T22:48:11.407Z,100.95
2018-02-08T22:50:38.944Z,101.90
2018-02-08T22:53:06.482Z,95.25
2018-02-08T22:55:34.060Z,97.25
2018-02-08T22:58:01.640Z,102.47
2018-02-08T23:00:29.224Z,88.72
2018-02-08T23:02:56.756Z,93.40
2018-02-08T23:05:24.354Z,102.55
2018-02-08T23:07:51.886Z,94.13
2018-02-08T23:10:19.432Z,96.47
2018-02-08T23:12:47.009Z,101.10
2018-02-08T23:15:14.595Z,106.03
2018-02-08T23:17:42.158Z,102.40
2018-02-08T23:20:09.746Z,106.55
2018-02-08T23:22:37.314Z,110.37
2018-02-08T23:25:04.907Z,103.62
2018-02-08T23:27:32.452Z,117.62
2018-02-08T23:29:59.992Z,102.38
2018-02-08T23:32:27.570Z,106.37
2018-02-08T23:34:55.139Z,108.53
2018-02-08T23:37:22.688Z,116.45
2018-02-08T23:39:50.282Z,108.85
2018-02-08T23:42:17.814Z,106.40
2018-02-08T23:44:45.349Z,115.25
2018-02-08T23:47:12.944Z,103.68
2018-02-08T23:49:40.483Z,102.07
2018-02-08T23:52:08.013Z,92.20
2018-02-08T23:54:36.372Z,91.07
2018-02-08T23:57:04.683Z,95.15
2018-02-08T23:59:32.228Z,106.00
